« Back
NWS Peachtree City, Ga » Text Product » AHN Terminal Aerodrome Forecast


Printer-friendly Version
Current Version              Previous Versions:   1  2  3  4  5  6  7  8  9  

Terminal Aerodrome Forecast

821
FTAK31 PAJN 230300 AAA
TAFAHN
TAF AMD
PAHN 230308Z 2303/2324 09009G17KT P6SM VCSH BKN050 OVC080
      TEMPO 2303/2306 BKN015 OVC030
     FM231000 VRB05KT P6SM SCT050 BKN080
     FM231500 30008KT P6SM BKN080
     FM232100 29012KT P6SM SCT100
      AMD LTD TO CLD VIS AND WIND=

USA.gov is the U.S. government's official web portal to all federal, state and local government web resources and services.